createdAt,value
2023-04-22T00:00:40.292Z,63.67
2023-04-22T00:03:40.953Z,64.13
2023-04-22T00:06:58.944Z,63.58
2023-04-22T00:10:03.897Z,60.63
2023-04-22T00:12:57.863Z,65.05
2023-04-22T00:15:54.868Z,63.35
2023-04-22T00:19:01.607Z,62.80
2023-04-22T00:22:10.591Z,63.75
2023-04-22T00:25:04.012Z,56.65
2023-04-22T00:28:27.610Z,63.28
2023-04-22T00:31:32.397Z,67.82
2023-04-22T00:34:20.809Z,67.72
2023-04-22T00:37:13.412Z,60.75
2023-04-22T00:40:01.174Z,59.83
2023-04-22T00:43:17.393Z,60.00
2023-04-22T00:46:03.874Z,69.35
2023-04-22T00:48:54.104Z,63.03
2023-04-22T00:52:03.219Z,61.40
2023-04-22T00:54:59.262Z,60.35
2023-04-22T00:57:47.267Z,56.72
2023-04-22T01:00:32.928Z,56.25
2023-04-22T01:03:27.048Z,61.15
2023-04-22T01:06:14.228Z,59.00
2023-04-22T01:08:59.840Z,55.05
2023-04-22T01:11:52.235Z,60.35
2023-04-22T01:14:42.646Z,60.60
2023-04-22T01:17:29.483Z,55.08
2023-04-22T01:20:15.777Z,55.80
2023-04-22T01:23:04.488Z,67.97
2023-04-22T01:25:50.870Z,61.45
2023-04-22T01:28:36.958Z,56.30
2023-04-22T01:31:23.366Z,59.70
2023-04-22T01:34:09.481Z,58.75
2023-04-22T01:36:55.299Z,59.85
2023-04-22T01:39:41.065Z,57.75
2023-04-22T01:42:26.801Z,59.88
2023-04-22T01:45:13.199Z,58.30
2023-04-22T01:47:58.671Z,53.42
2023-04-22T01:50:44.557Z,59.72
2023-04-22T01:53:29.983Z,56.00
2023-04-22T01:56:15.866Z,52.67
2023-04-22T01:59:01.298Z,59.83
2023-04-22T02:01:46.475Z,63.22
2023-04-22T02:04:32.495Z,58.55
2023-04-22T02:07:17.966Z,50.20
2023-04-22T02:10:05.461Z,54.90
2023-04-22T02:12:51.291Z,51.78
2023-04-22T02:15:36.969Z,55.60
2023-04-22T02:18:22.759Z,52.90
2023-04-22T02:21:09.072Z,57.10
2023-04-22T02:23:54.251Z,59.80
2023-04-22T02:26:39.752Z,52.90
2023-04-22T02:29:25.309Z,50.83
2023-04-22T02:32:10.744Z,50.22
2023-04-22T02:34:56.460Z,53.47
2023-04-22T02:37:42.027Z,54.97
2023-04-22T02:40:27.641Z,51.63
2023-04-22T02:43:13.230Z,50.63
2023-04-22T02:45:58.673Z,54.38
2023-04-22T02:48:44.502Z,57.92
2023-04-22T02:51:31.091Z,55.15
2023-04-22T02:54:16.809Z,52.97
2023-04-22T02:57:03.057Z,55.55
2023-04-22T02:59:48.500Z,58.60
2023-04-22T03:02:34.315Z,53.90
2023-04-22T03:05:19.768Z,48.78
2023-04-22T03:08:05.388Z,55.20
2023-04-22T03:10:51.062Z,52.58
2023-04-22T03:13:36.640Z,56.63
2023-04-22T03:16:26.161Z,58.85
2023-04-22T03:19:11.779Z,56.58
2023-04-22T03:21:58.278Z,58.20
2023-04-22T03:24:43.797Z,59.15
2023-04-22T03:27:29.352Z,59.10
2023-04-22T03:30:14.844Z,57.25
2023-04-22T03:33:00.551Z,57.95
2023-04-22T03:35:49.433Z,56.53
2023-04-22T03:38:34.652Z,60.00
2023-04-22T03:41:20.291Z,56.17
2023-04-22T03:44:05.498Z,57.45
2023-04-22T03:46:50.875Z,62.53
2023-04-22T03:49:36.855Z,59.83
2023-04-22T03:52:22.522Z,59.10
2023-04-22T03:55:08.555Z,63.53
2023-04-22T03:57:53.971Z,61.17
2023-04-22T04:00:39.752Z,60.10
2023-04-22T04:03:26.627Z,56.40
2023-04-22T04:06:13.776Z,52.55
2023-04-22T04:08:59.139Z,57.10
2023-04-22T04:11:44.674Z,61.03
2023-04-22T04:14:30.230Z,57.45
2023-04-22T04:17:15.799Z,65.05
2023-04-22T04:20:01.156Z,56.05
2023-04-22T04:22:46.779Z,60.70
2023-04-22T04:25:37.775Z,67.75
2023-04-22T04:28:23.078Z,63.30
2023-04-22T04:31:08.727Z,64.38
2023-04-22T04:33:57.389Z,60.92
2023-04-22T04:36:44.059Z,67.95
2023-04-22T04:39:29.990Z,58.53
2023-04-22T04:42:15.860Z,60.88
2023-04-22T04:45:01.262Z,63.47
2023-04-22T04:47:47.061Z,65.95
2023-04-22T04:50:32.971Z,59.72
2023-04-22T04:53:18.285Z,66.82
2023-04-22T04:56:04.312Z,74.97
2023-04-22T04:58:49.735Z,65.45
2023-04-22T05:01:35.944Z,62.72
2023-04-22T05:04:22.363Z,63.50
2023-04-22T05:07:08.391Z,64.88
2023-04-22T05:09:54.262Z,72.35
2023-04-22T05:12:40.971Z,61.50
2023-04-22T05:15:26.850Z,66.65
2023-04-22T05:18:12.888Z,62.67
2023-04-22T05:20:59.429Z,66.85
2023-04-22T05:23:44.827Z,57.63
2023-04-22T05:26:30.558Z,65.45
2023-04-22T05:29:15.970Z,59.03
2023-04-22T05:32:01.688Z,57.67
2023-04-22T05:34:47.976Z,53.30
2023-04-22T05:37:37.416Z,61.33
2023-04-22T05:40:23.308Z,63.17
2023-04-22T05:43:09.135Z,58.40
2023-04-22T05:45:54.800Z,60.58
2023-04-22T05:48:40.733Z,63.92
2023-04-22T05:51:26.621Z,60.67
2023-04-22T05:54:12.442Z,65.82
2023-04-22T05:56:58.540Z,64.97
2023-04-22T05:59:44.043Z,61.55
2023-04-22T06:02:29.691Z,62.72
2023-04-22T06:05:15.137Z,62.30
2023-04-22T06:08:00.883Z,64.05
2023-04-22T06:10:46.366Z,60.78
2023-04-22T06:13:31.951Z,69.35
2023-04-22T06:16:17.778Z,57.60
2023-04-22T06:19:03.380Z,59.85
2023-04-22T06:21:49.086Z,58.15
2023-04-22T06:24:34.453Z,61.22
2023-04-22T06:27:20.065Z,64.75
2023-04-22T06:30:06.776Z,69.75
2023-04-22T06:32:52.699Z,67.55
2023-04-22T06:35:38.661Z,73.65
2023-04-22T06:38:23.963Z,76.20
2023-04-22T06:41:09.489Z,75.03
2023-04-22T06:43:55.054Z,72.03
2023-04-22T06:46:40.819Z,72.65
2023-04-22T06:49:26.582Z,72.38
2023-04-22T06:52:12.414Z,74.43
2023-04-22T06:54:57.664Z,70.70
2023-04-22T06:57:43.168Z,63.05
2023-04-22T07:00:29.283Z,61.63
2023-04-22T07:03:14.709Z,66.68
2023-04-22T07:06:00.670Z,64.25
2023-04-22T07:08:46.115Z,68.57
2023-04-22T07:11:31.699Z,60.85
2023-04-22T07:14:32.485Z,58.72
2023-04-22T07:17:22.040Z,64.10
2023-04-22T07:20:08.547Z,67.03
2023-04-22T07:22:54.888Z,69.68
2023-04-22T07:25:41.335Z,74.57
2023-04-22T07:28:27.024Z,75.03
2023-04-22T07:31:12.802Z,77.80
2023-04-22T07:33:58.507Z,75.95
2023-04-22T07:36:44.130Z,72.53
2023-04-22T07:39:29.867Z,78.28
2023-04-22T07:42:15.222Z,75.53
2023-04-22T07:45:00.625Z,67.93
2023-04-22T07:47:46.320Z,67.28
2023-04-22T07:50:32.106Z,58.05
2023-04-22T07:53:17.960Z,58.83
2023-04-22T07:56:04.161Z,61.08
2023-04-22T07:58:49.923Z,56.85
2023-04-22T08:01:35.582Z,48.78
2023-04-22T08:04:24.640Z,49.95
2023-04-22T08:07:29.769Z,47.70
2023-04-22T08:10:16.766Z,43.22
2023-04-22T08:13:02.795Z,43.35
2023-04-22T08:15:48.311Z,46.90
2023-04-22T08:18:33.916Z,44.03
2023-04-22T08:21:19.627Z,32.60
2023-04-22T08:24:06.194Z,32.97
2023-04-22T08:26:52.388Z,32.22
2023-04-22T08:29:38.401Z,27.02
2023-04-22T08:32:26.432Z,29.67
2023-04-22T08:35:12.359Z,25.92
2023-04-22T08:37:58.288Z,31.17
2023-04-22T08:40:43.752Z,26.40
2023-04-22T08:43:29.336Z,28.52
2023-04-22T08:46:15.839Z,22.70
2023-04-22T08:49:03.989Z,22.42
2023-04-22T08:51:50.517Z,19.33
2023-04-22T08:54:37.499Z,17.60
2023-04-22T08:57:24.123Z,20.85
2023-04-22T09:00:10.138Z,21.45
2023-04-22T09:02:58.252Z,14.85
2023-04-22T09:05:45.454Z,15.90
2023-04-22T09:08:31.581Z,15.52
2023-04-22T09:11:18.115Z,16.80
2023-04-22T09:14:04.253Z,15.73
2023-04-22T09:16:50.557Z,13.82
2023-04-22T09:19:36.703Z,15.27
2023-04-22T09:22:22.163Z,16.83
2023-04-22T09:25:23.294Z,15.45
2023-04-22T09:28:13.019Z,15.88
2023-04-22T09:31:02.754Z,15.82
2023-04-22T09:33:54.563Z,14.77
2023-04-22T09:36:40.822Z,19.60
2023-04-22T09:39:26.889Z,17.05
2023-04-22T09:42:12.973Z,16.90
2023-04-22T09:45:01.275Z,18.77
2023-04-22T09:47:47.510Z,15.43
2023-04-22T09:50:32.821Z,15.70
2023-04-22T09:53:20.213Z,16.05
2023-04-22T09:56:06.267Z,16.48
2023-04-22T09:58:53.257Z,15.70
2023-04-22T10:01:41.422Z,18.13
2023-04-22T10:04:27.372Z,16.48
2023-04-22T10:07:14.517Z,17.05
2023-04-22T10:10:00.125Z,15.20
2023-04-22T10:12:48.976Z,13.88
2023-04-22T10:15:43.540Z,13.65
2023-04-22T10:18:30.796Z,16.73
2023-04-22T10:21:18.852Z,15.45
2023-04-22T10:24:09.342Z,16.00
2023-04-22T10:26:57.961Z,16.70
2023-04-22T10:29:43.855Z,14.25
2023-04-22T10:32:30.833Z,15.98
2023-04-22T10:35:19.361Z,15.13
2023-04-22T10:38:09.828Z,16.38
2023-04-22T10:41:03.318Z,14.20
2023-04-22T10:43:55.940Z,12.82
2023-04-22T10:46:42.569Z,13.98
2023-04-22T10:49:30.955Z,13.15
2023-04-22T10:52:29.251Z,12.60
2023-04-22T10:55:19.691Z,12.23
2023-04-22T10:58:52.496Z,12.48
2023-04-22T11:01:44.902Z,13.63
2023-04-22T11:04:34.605Z,11.02
2023-04-22T11:07:27.031Z,14.70
2023-04-22T11:10:31.662Z,14.13
2023-04-22T11:13:23.857Z,13.43
2023-04-22T11:16:13.049Z,11.88
2023-04-22T11:18:59.794Z,13.00
2023-04-22T11:21:45.462Z,11.45
2023-04-22T11:24:30.752Z,12.82
2023-04-22T11:27:18.814Z,11.23
2023-04-22T11:30:07.639Z,12.70
2023-04-22T11:32:59.958Z,12.88
2023-04-22T11:35:59.130Z,13.45
2023-04-22T11:39:00.331Z,14.60
2023-04-22T11:41:46.404Z,13.07
2023-04-22T11:44:32.316Z,14.90
2023-04-22T11:47:19.416Z,15.55
2023-04-22T11:50:09.875Z,11.75
2023-04-22T11:52:56.928Z,13.68
2023-04-22T11:55:43.861Z,11.68
2023-04-22T11:58:29.433Z,10.98
2023-04-22T12:01:14.895Z,10.85
2023-04-22T12:04:16.103Z,14.10
2023-04-22T12:07:07.684Z,13.73
2023-04-22T12:10:01.290Z,15.40
2023-04-22T12:12:48.852Z,14.43
2023-04-22T12:15:38.614Z,12.25
2023-04-22T12:18:32.430Z,10.65
2023-04-22T12:21:20.368Z,11.43
2023-04-22T12:24:13.031Z,13.25
2023-04-22T12:26:59.124Z,14.40
2023-04-22T12:30:14.938Z,11.45
2023-04-22T12:33:00.860Z,12.23
2023-04-22T12:35:51.914Z,13.27
2023-04-22T12:38:37.838Z,12.23
2023-04-22T12:41:23.846Z,16.83
2023-04-22T12:44:09.280Z,13.82
2023-04-22T12:46:54.843Z,13.48
2023-04-22T12:49:40.496Z,13.55
2023-04-22T12:52:26.087Z,12.50
2023-04-22T12:55:12.002Z,12.25
2023-04-22T12:57:57.959Z,13.73
2023-04-22T13:00:43.473Z,12.45
2023-04-22T13:03:29.305Z,12.30
2023-04-22T13:06:15.139Z,12.20
2023-04-22T13:09:00.719Z,12.93
2023-04-22T13:11:49.236Z,12.70
2023-04-22T13:14:35.279Z,12.23
2023-04-22T13:17:21.830Z,11.93
2023-04-22T13:20:09.576Z,11.23
2023-04-22T13:22:58.893Z,11.55
2023-04-22T13:25:44.533Z,13.02
2023-04-22T13:28:35.027Z,14.63
2023-04-22T13:31:21.659Z,11.82
2023-04-22T13:34:09.710Z,11.00
2023-04-22T13:36:56.609Z,11.38
2023-04-22T13:39:42.734Z,13.02
2023-04-22T13:42:28.449Z,13.10
2023-04-22T13:45:13.686Z,13.43
2023-04-22T13:47:59.575Z,12.13
2023-04-22T13:50:45.726Z,12.63
2023-04-22T13:53:34.078Z,15.68
2023-04-22T13:56:20.081Z,12.38
2023-04-22T13:59:05.738Z,14.32
2023-04-22T14:01:51.189Z,15.98
2023-04-22T14:04:36.487Z,17.05
2023-04-22T14:07:21.990Z,19.27
2023-04-22T14:10:08.827Z,15.98
2023-04-22T14:12:54.836Z,15.63
2023-04-22T14:15:40.848Z,14.68
2023-04-22T14:18:26.281Z,17.73
2023-04-22T14:21:12.760Z,19.02
2023-04-22T14:23:58.267Z,14.23
2023-04-22T14:26:44.026Z,17.67
2023-04-22T14:29:29.979Z,15.23
2023-04-22T14:32:18.577Z,14.82
2023-04-22T14:35:04.623Z,16.42
2023-04-22T14:37:50.182Z,15.05
2023-04-22T14:40:35.928Z,15.10
2023-04-22T14:43:21.340Z,14.60
2023-04-22T14:46:07.000Z,15.55
2023-04-22T14:48:52.547Z,14.93
2023-04-22T14:51:57.747Z,15.35
2023-04-22T14:54:43.713Z,14.45
2023-04-22T14:57:29.133Z,15.95
2023-04-22T15:00:15.216Z,13.55
2023-04-22T15:03:00.930Z,13.40
2023-04-22T15:05:49.424Z,12.95
2023-04-22T15:08:35.469Z,11.98
2023-04-22T15:11:21.097Z,11.38
2023-04-22T15:14:06.879Z,11.93
2023-04-22T15:17:13.263Z,14.15
2023-04-22T15:19:59.916Z,10.88
2023-04-22T15:22:48.722Z,14.48
2023-04-22T15:25:35.755Z,11.35
2023-04-22T15:28:21.537Z,11.10
2023-04-22T15:31:06.945Z,11.38
2023-04-22T15:33:55.474Z,11.32
2023-04-22T15:36:41.191Z,11.80
2023-04-22T15:39:26.640Z,12.77
2023-04-22T15:42:13.827Z,10.48
2023-04-22T15:45:00.033Z,10.45
2023-04-22T15:47:47.134Z,12.32
2023-04-22T15:50:33.190Z,11.35
2023-04-22T15:53:19.368Z,10.63
2023-04-22T15:56:04.899Z,9.32
2023-04-22T15:59:06.988Z,10.55
2023-04-22T16:01:53.688Z,9.83
2023-04-22T16:04:40.855Z,9.82
2023-04-22T16:07:27.471Z,9.13
2023-04-22T16:10:13.100Z,10.02
2023-04-22T16:13:21.108Z,10.35
2023-04-22T16:16:07.283Z,9.27
2023-04-22T16:18:54.680Z,10.18
2023-04-22T16:21:44.056Z,12.75
2023-04-22T16:24:29.611Z,9.68
2023-04-22T16:27:17.359Z,10.30
2023-04-22T16:30:03.052Z,9.98
2023-04-22T16:32:49.418Z,9.93
2023-04-22T16:35:35.676Z,11.20
2023-04-22T16:38:21.512Z,10.25
2023-04-22T16:41:06.892Z,10.13
2023-04-22T16:43:52.423Z,11.65
2023-04-22T16:46:38.025Z,11.63
2023-04-22T16:49:23.970Z,10.98
2023-04-22T16:52:09.794Z,10.90
2023-04-22T16:54:55.854Z,9.85
2023-04-22T16:57:54.444Z,13.38
2023-04-22T17:00:43.239Z,11.13
2023-04-22T17:03:32.509Z,10.98
2023-04-22T17:06:21.997Z,9.80
2023-04-22T17:09:09.899Z,10.43
2023-04-22T17:11:56.517Z,13.73
2023-04-22T17:14:41.969Z,10.18
2023-04-22T17:17:27.877Z,8.00
2023-04-22T17:20:13.645Z,10.52
2023-04-22T17:22:59.352Z,8.80
2023-04-22T17:25:50.295Z,9.68
2023-04-22T17:28:38.950Z,10.88
2023-04-22T17:31:25.052Z,9.20
2023-04-22T17:34:10.979Z,8.40
2023-04-22T17:36:59.554Z,9.02
2023-04-22T17:39:45.473Z,7.63
2023-04-22T17:42:44.637Z,18.05
2023-04-22T17:45:34.974Z,9.20
2023-04-22T17:48:20.857Z,8.48
2023-04-22T17:51:10.324Z,6.78
2023-04-22T17:53:58.608Z,9.00
2023-04-22T17:56:44.152Z,7.00
2023-04-22T17:59:32.617Z,7.32
2023-04-22T18:02:18.601Z,8.23
2023-04-22T18:05:05.720Z,7.47
2023-04-22T18:07:51.675Z,7.13
2023-04-22T18:10:39.030Z,8.38
2023-04-22T18:13:24.955Z,9.80
2023-04-22T18:17:14.807Z,7.88
2023-04-22T18:20:17.262Z,6.50
2023-04-22T18:23:04.037Z,7.60
2023-04-22T18:25:49.793Z,11.65
2023-04-22T18:28:40.258Z,7.80
2023-04-22T18:31:40.147Z,10.32
2023-04-22T18:34:33.367Z,8.45
2023-04-22T18:37:20.702Z,8.38
2023-04-22T18:40:10.812Z,9.80
2023-04-22T18:43:14.281Z,10.27
2023-04-22T18:46:03.232Z,10.57
2023-04-22T18:48:49.441Z,7.00
2023-04-22T18:54:50.299Z,7.65
2023-04-22T18:57:39.543Z,10.13
2023-04-22T19:00:33.292Z,9.52
2023-04-22T19:03:22.389Z,8.80
2023-04-22T19:06:08.401Z,7.78
2023-04-22T19:08:54.270Z,9.68
2023-04-22T19:11:39.863Z,11.85
2023-04-22T19:14:31.967Z,10.82
2023-04-22T19:17:23.299Z,10.52
2023-04-22T19:20:15.391Z,11.23
2023-04-22T19:23:10.977Z,9.50
2023-04-22T19:25:57.026Z,12.38
2023-04-22T19:28:51.751Z,12.73
2023-04-22T19:31:50.417Z,11.45
2023-04-22T19:34:37.108Z,14.25
2023-04-22T19:37:25.834Z,11.40
2023-04-22T19:40:20.946Z,13.75
2023-04-22T19:43:06.788Z,14.52
2023-04-22T19:45:56.061Z,12.63
2023-04-22T19:48:43.053Z,14.07
2023-04-22T19:52:10.823Z,13.43
2023-04-22T19:55:12.282Z,23.80
2023-04-22T19:57:59.563Z,16.88
2023-04-22T20:00:46.900Z,16.92
2023-04-22T20:03:42.869Z,18.23
2023-04-22T20:22:35.938Z,17.60
2023-04-22T20:25:50.285Z,18.80
2023-04-22T20:28:45.249Z,17.25
2023-04-22T20:31:31.180Z,17.42
2023-04-22T20:34:18.017Z,16.08
2023-04-22T20:37:10.354Z,16.73
2023-04-22T20:39:57.538Z,18.70
2023-04-22T20:42:43.795Z,21.55
2023-04-22T20:45:29.731Z,19.88
2023-04-22T20:48:15.807Z,20.85
2023-04-22T20:51:02.000Z,19.20
2023-04-22T20:53:48.033Z,19.73
2023-04-22T20:56:33.915Z,21.77
2023-04-22T20:59:20.408Z,21.73
2023-04-22T21:02:06.870Z,22.05
2023-04-22T21:04:53.473Z,22.80
2023-04-22T21:07:40.003Z,20.73
2023-04-22T21:10:26.159Z,28.92
2023-04-22T21:13:13.017Z,29.35
2023-04-22T21:16:02.030Z,24.73
2023-04-22T21:18:48.334Z,27.85
2023-04-22T21:21:34.828Z,25.35
2023-04-22T21:24:24.534Z,28.02
2023-04-22T21:27:10.969Z,29.52
2023-04-22T21:29:57.360Z,29.20
2023-04-22T21:32:43.667Z,31.02
2023-04-22T21:35:35.894Z,31.13
2023-04-22T21:38:24.933Z,30.05
2023-04-22T21:41:11.000Z,34.58
2023-04-22T21:43:57.022Z,31.77
2023-04-22T21:46:46.491Z,31.48
2023-04-22T21:49:32.757Z,28.63
2023-04-22T21:52:18.982Z,32.20
2023-04-22T21:55:06.150Z,30.23
2023-04-22T21:57:52.084Z,35.22
2023-04-22T22:00:39.112Z,27.40
2023-04-22T22:03:28.084Z,30.20
2023-04-22T22:06:14.495Z,28.73
2023-04-22T22:09:03.082Z,29.38
2023-04-22T22:11:49.362Z,27.70
2023-04-22T22:14:34.962Z,30.15
2023-04-22T22:17:20.935Z,29.35
2023-04-22T22:20:12.217Z,28.55
2023-04-22T22:22:58.868Z,28.52
2023-04-22T22:25:50.492Z,30.55
2023-04-22T22:28:39.151Z,31.98
2023-04-22T22:31:25.861Z,28.92
2023-04-22T22:34:12.029Z,26.67
2023-04-22T22:36:57.455Z,33.45
2023-04-22T22:39:43.437Z,27.42
2023-04-22T22:42:29.226Z,26.08
2023-04-22T22:45:14.727Z,28.40
2023-04-22T22:48:01.265Z,27.40
2023-04-22T22:50:50.001Z,23.10
2023-04-22T22:53:39.863Z,24.13
2023-04-22T22:56:25.832Z,21.75
2023-04-22T22:59:11.694Z,20.75
2023-04-22T23:02:06.988Z,18.55
2023-04-22T23:04:54.340Z,20.90
2023-04-22T23:07:40.979Z,26.15
2023-04-22T23:10:29.879Z,16.58
2023-04-22T23:13:20.978Z,18.23
2023-04-22T23:16:07.217Z,15.63
2023-04-22T23:18:52.985Z,15.45
2023-04-22T23:21:41.663Z,14.85
2023-04-22T23:24:27.840Z,14.05
2023-04-22T23:27:14.154Z,11.27
2023-04-22T23:30:00.338Z,10.02
2023-04-22T23:33:16.901Z,10.95
2023-04-22T23:36:06.265Z,11.40
2023-04-22T23:38:52.480Z,11.25
2023-04-22T23:41:37.799Z,9.15
2023-04-22T23:44:23.921Z,8.73
2023-04-22T23:47:28.064Z,11.05
2023-04-22T23:54:04.803Z,13.82
2023-04-22T23:57:11.627Z,11.50
